Time;durP1;ratioP1;P1;durP2;ratioP2;P2;SDS_P1;SDS_P2;PMS_P1;PMS_P2;Temp;Humidity;BMP_temperature;BMP_pressure;BME280_temperature;BME280_humidity;BME280_pressure;Samples;Min_cycle;Max_cycle;Signal;HPM_P1;HPM_P2
2024/01/03 00:01:42;;;;;;;5.70;3.70;;;;;;;-147.86;100.00;-17609.17;105877;1253;71415;-45
2024/01/03 00:04:12;;;;;;;5.00;4.00;;;;;;;-147.86;100.00;-17609.17;105906;1253;59743;-44
2024/01/03 00:06:41;;;;;;;4.30;3.80;;;;;;;-147.86;100.00;-17609.17;105902;1256;59536;-44
2024/01/03 00:09:08;;;;;;;4.80;4.00;;;;;;;-147.86;100.00;-17609.17;105763;1250;71791;-43
2024/01/03 00:11:36;;;;;;;6.60;4.80;;;;;;;-147.86;100.00;-17609.17;105717;1251;63923;-43
2024/01/03 00:14:19;;;;;;;6.80;4.30;;;;;;;-147.86;100.00;-17609.17;105883;1254;71395;-43
2024/01/03 00:16:47;;;;;;;6.30;4.30;;;;;;;-147.86;100.00;-17609.17;105856;1254;59618;-44
2024/01/03 00:19:16;;;;;;;6.30;4.90;;;;;;;-147.86;100.00;-17609.17;105927;1250;59965;-45
2024/01/03 00:21:44;;;;;;;7.50;4.90;;;;;;;-147.86;100.00;-17609.17;105909;1251;73038;-44
2024/01/03 00:24:13;;;;;;;6.20;4.90;;;;;;;-147.86;100.00;-17609.17;105885;1257;63915;-44
2024/01/03 00:26:41;;;;;;;7.20;4.90;;;;;;;-147.86;100.00;-17609.17;105885;1253;72661;-44
2024/01/03 00:29:37;;;;;;;6.10;5.10;;;;;;;-147.86;100.00;-17609.17;105859;1257;59702;-44
2024/01/03 00:32:05;;;;;;;4.80;3.90;;;;;;;-147.86;100.00;-17609.17;105879;1256;59539;-44
2024/01/03 00:34:42;;;;;;;8.50;5.50;;;;;;;-147.86;100.00;-17609.17;105732;1259;72970;-44
2024/01/03 00:37:30;;;;;;;5.40;4.80;;;;;;;-147.86;100.00;-17609.17;105748;1250;63940;-44
2024/01/03 00:39:58;;;;;;;5.60;4.60;;;;;;;-147.86;100.00;-17609.17;105722;1256;71309;-44
2024/01/03 00:42:26;;;;;;;5.80;4.60;;;;;;;-147.86;100.00;-17609.17;105877;1253;60450;-45
2024/01/03 00:44:54;;;;;;;5.50;4.90;;;;;;;-147.86;100.00;-17609.17;105892;1258;59643;-44
2024/01/03 00:47:22;;;;;;;6.20;4.50;;;;;;;-147.86;100.00;-17609.17;105764;1250;74219;-44
2024/01/03 00:49:50;;;;;;;9.20;5.90;;;;;;;-147.86;100.00;-17609.17;105899;1257;65682;-44
2024/01/03 00:52:18;;;;;;;5.70;5.10;;;;;;;-147.86;100.00;-17609.17;105865;1257;72628;-45
2024/01/03 00:54:46;;;;;;;7.80;5.10;;;;;;;-147.86;100.00;-17609.17;105696;1258;60394;-45
2024/01/03 00:57:14;;;;;;;11.00;6.10;;;;;;;-147.86;100.00;-17609.17;105667;1251;59546;-45
2024/01/03 00:59:44;;;;;;;9.30;6.90;;;;;;;-147.86;100.00;-17609.17;105899;1250;71789;-45
2024/01/03 01:54:04;;;;;;;;;;;;;;;-147.86;100.00;-17609.17;102744;1294;600372;-44
2024/01/03 01:56:32;;;;;;;15.80;10.30;;;;;;;-147.86;100.00;-17609.17;105163;1264;61614;-44
2024/01/03 01:59:00;;;;;;;13.00;8.40;;;;;;;-147.86;100.00;-17609.17;104885;1270;59274;-44
2024/01/03 02:01:28;;;;;;;13.30;8.50;;;;;;;-147.86;100.00;-17609.17;105000;1264;71862;-43
2024/01/03 02:03:55;;;;;;;12.60;8.50;;;;;;;-147.86;100.00;-17609.17;104904;1264;63995;-43
2024/01/03 02:06:23;;;;;;;15.60;8.60;;;;;;;-147.86;100.00;-17609.17;105102;1264;72577;-44
2024/01/03 02:08:51;;;;;;;13.90;8.50;;;;;;;-147.86;100.00;-17609.17;105057;1267;226808;-43
2024/01/03 02:11:19;;;;;;;15.80;8.60;;;;;;;-147.86;100.00;-17609.17;105276;1266;59249;-44
2024/01/03 02:13:47;;;;;;;13.30;9.10;;;;;;;-147.86;100.00;-17609.17;105223;1266;71011;-44
2024/01/03 02:16:17;;;;;;;13.20;9.10;;;;;;;-147.86;100.00;-17609.17;105271;1261;63209;-43
2024/01/03 02:18:45;;;;;;;17.70;10.30;;;;;;;-147.86;100.00;-17609.17;105236;1261;72592;-43
2024/01/03 02:21:17;;;;;;;15.40;8.90;;;;;;;-147.86;100.00;-17609.17;105218;1262;60368;-43
2024/01/03 02:23:44;;;;;;;17.10;10.30;;;;;;;-147.86;100.00;-17609.17;105223;1267;59538;-43
2024/01/03 02:26:12;;;;;;;20.00;11.20;;;;;;;-147.86;100.00;-17609.17;106047;1251;72187;-43
2024/01/03 02:28:55;;;;;;;20.30;11.30;;;;;;;-147.86;100.00;-17609.17;106007;1251;65069;-43
2024/01/03 02:31:23;;;;;;;18.10;10.50;;;;;;;-147.86;100.00;-17609.17;105997;1257;71399;-44
2024/01/03 02:33:51;;;;;;;25.00;10.80;;;;;;;-147.86;100.00;-17609.17;105963;1254;60560;-43
2024/01/03 02:36:19;;;;;;;16.70;10.80;;;;;;;-147.86;100.00;-17609.17;106003;1254;59524;-44
2024/01/03 02:38:48;;;;;;;20.20;10.60;;;;;;;-147.86;100.00;-17609.17;106053;1255;72996;-43
2024/01/03 02:41:16;;;;;;;18.00;11.20;;;;;;;-147.86;100.00;-17609.17;106015;1256;63033;-43
2024/01/03 02:43:44;;;;;;;17.00;11.40;;;;;;;-147.86;100.00;-17609.17;105936;1251;72645;-43
2024/01/03 02:46:12;;;;;;;16.70;10.60;;;;;;;-147.86;100.00;-17609.17;105984;1257;59516;-44
2024/01/03 02:48:40;;;;;;;18.20;10.10;;;;;;;-147.86;100.00;-17609.17;106049;1252;59691;-43
2024/01/03 02:51:19;;;;;;;20.60;10.70;;;;;;;-147.86;100.00;-17609.17;105963;1257;71830;-43
2024/01/03 02:53:48;;;;;;;19.20;11.20;;;;;;;-147.86;100.00;-17609.17;105961;1251;64076;-43
2024/01/03 02:56:16;;;;;;;17.90;10.40;;;;;;;-147.86;100.00;-17609.17;105944;1256;71384;-43
2024/01/03 02:58:44;;;;;;;18.30;10.90;;;;;;;-147.86;100.00;-17609.17;105903;1257;61617;-44
2024/01/03 03:01:12;;;;;;;18.50;11.10;;;;;;;-147.86;100.00;-17609.17;105995;1251;59950;-44
2024/01/03 03:03:41;;;;;;;17.10;8.20;;;;;;;-147.86;100.00;-17609.17;105905;1257;71406;-43
2024/01/03 03:06:09;;;;;;;18.30;11.20;;;;;;;-147.86;100.00;-17609.17;105892;1251;64005;-44
2024/01/03 03:08:37;;;;;;;14.80;9.10;;;;;;;-147.86;100.00;-17609.17;105753;1252;72592;-45
2024/01/03 03:11:06;;;;;;;17.30;10.10;;;;;;;-147.86;100.00;-17609.17;105656;1257;62324;-44
2024/01/03 03:13:35;;;;;;;14.70;9.20;;;;;;;-147.86;100.00;-17609.17;105688;1257;59699;-44
2024/01/03 03:16:03;;;;;;;15.60;9.40;;;;;;;-147.86;100.00;-17609.17;105881;1257;70917;-43
2024/01/03 03:18:30;;;;;;;17.20;10.90;;;;;;;-147.86;100.00;-17609.17;106009;1257;64029;-44
2024/01/03 03:21:00;;;;;;;18.60;10.60;;;;;;;-147.86;100.00;-17609.17;105897;1257;71381;-45
2024/01/03 03:23:28;;;;;;;21.70;11.40;;;;;;;-147.86;100.00;-17609.17;105964;1254;59640;-46
2024/01/03 03:25:56;;;;;;;18.20;10.40;;;;;;;-147.86;100.00;-17609.17;105934;1257;59954;-43
2024/01/03 03:28:24;;;;;;;16.10;10.50;;;;;;;-147.86;100.00;-17609.17;105893;1251;72995;-42
2024/01/03 03:30:52;;;;;;;22.40;11.30;;;;;;;-147.86;100.00;-17609.17;105963;1256;64003;-43
2024/01/03 03:33:20;;;;;;;23.90;11.30;;;;;;;-147.86;100.00;-17609.17;105905;1257;71429;-43
2024/01/03 03:35:48;;;;;;;19.20;11.50;;;;;;;-147.86;100.00;-17609.17;105895;1257;60423;-43
2024/01/03 03:38:16;;;;;;;19.30;9.50;;;;;;;-147.86;100.00;-17609.17;105916;1251;59963;-43
2024/01/03 03:40:44;;;;;;;18.10;10.10;;;;;;;-147.86;100.00;-17609.17;105944;1251;71708;-42
2024/01/03 03:43:12;;;;;;;20.50;10.70;;;;;;;-147.86;100.00;-17609.17;105896;1256;63916;-42
2024/01/03 03:45:40;;;;;;;19.50;10.50;;;;;;;-147.86;100.00;-17609.17;105950;1257;72629;-43
2024/01/03 03:48:08;;;;;;;19.10;10.90;;;;;;;-147.86;100.00;-17609.17;105843;1257;60416;-43
2024/01/03 03:50:36;;;;;;;17.50;10.40;;;;;;;-147.86;100.00;-17609.17;105950;1256;59841;-43
2024/01/03 03:53:10;;;;;;;21.90;12.00;;;;;;;-147.86;100.00;-17609.17;105883;1261;71740;-42
2024/01/03 03:55:42;;;;;;;24.30;13.30;;;;;;;-147.86;100.00;-17609.17;105937;1257;63883;-43
2024/01/03 03:58:10;;;;;;;22.40;12.10;;;;;;;-147.86;100.00;-17609.17;105914;1254;72227;-42
2024/01/03 04:00:38;;;;;;;19.40;11.40;;;;;;;-147.86;100.00;-17609.17;105905;1257;59713;-42
2024/01/03 04:03:08;;;;;;;21.20;12.50;;;;;;;-147.86;100.00;-17609.17;105880;1251;59979;-42
2024/01/03 04:05:37;;;;;;;22.00;12.00;;;;;;;-147.86;100.00;-17609.17;105998;1257;70801;-42
2024/01/03 04:08:05;;;;;;;19.10;12.00;;;;;;;-147.86;100.00;-17609.17;105929;1257;65204;-42
2024/01/03 04:10:33;;;;;;;21.70;12.00;;;;;;;-147.86;100.00;-17609.17;105935;1256;71373;-42
2024/01/03 04:13:01;;;;;;;22.20;11.60;;;;;;;-147.86;100.00;-17609.17;105896;1257;60081;-42
2024/01/03 04:15:29;;;;;;;19.60;11.50;;;;;;;-147.86;100.00;-17609.17;105965;1257;59985;-42
2024/01/03 04:17:57;;;;;;;21.50;12.60;;;;;;;-147.86;100.00;-17609.17;105876;1251;71751;-42
2024/01/03 04:20:25;;;;;;;21.80;11.50;;;;;;;-147.86;100.00;-17609.17;105939;1256;63934;-42
2024/01/03 04:22:53;;;;;;;23.10;11.90;;;;;;;-147.86;100.00;-17609.17;105883;1257;72583;-42
2024/01/03 04:25:20;;;;;;;23.40;12.10;;;;;;;-147.86;100.00;-17609.17;105850;1257;60443;-43
2024/01/03 04:27:48;;;;;;;21.70;11.30;;;;;;;-147.86;100.00;-17609.17;105872;1257;59768;-42
2024/01/03 04:30:15;;;;;;;24.80;12.40;;;;;;;-147.86;100.00;-17609.17;105819;1257;72652;-43
2024/01/03 04:32:43;;;;;;;25.10;11.50;;;;;;;-147.86;100.00;-17609.17;105884;1257;64107;-42
2024/01/03 04:35:11;;;;;;;23.60;11.80;;;;;;;-147.86;100.00;-17609.17;105946;1256;71414;-42
2024/01/03 04:37:39;;;;;;;24.20;12.40;;;;;;;-147.86;100.00;-17609.17;105894;1257;60007;-42
2024/01/03 04:40:08;;;;;;;18.60;11.10;;;;;;;-147.86;100.00;-17609.17;105944;1256;62507;-42
2024/01/03 04:42:36;;;;;;;18.70;12.10;;;;;;;-147.86;100.00;-17609.17;105916;1251;73132;-42
2024/01/03 04:45:04;;;;;;;23.40;11.00;;;;;;;-147.86;100.00;-17609.17;106011;1257;65146;-42
2024/01/03 04:47:32;;;;;;;22.40;12.00;;;;;;;-147.86;100.00;-17609.17;105910;1254;71834;-42
2024/01/03 04:50:00;;;;;;;24.80;12.80;;;;;;;-147.86;100.00;-17609.17;105976;1258;60400;-42
2024/01/03 04:52:28;;;;;;;22.60;11.90;;;;;;;-147.86;100.00;-17609.17;105868;1257;59701;-42
2024/01/03 04:54:56;;;;;;;27.00;11.80;;;;;;;-147.86;100.00;-17609.17;105909;1259;72056;-42
2024/01/03 04:57:24;;;;;;;21.90;12.20;;;;;;;-147.86;100.00;-17609.17;105867;1253;64014;-42
2024/01/03 04:59:51;;;;;;;20.50;10.30;;;;;;;-147.86;100.00;-17609.17;105941;1253;70702;-42
2024/01/03 05:02:19;;;;;;;25.10;13.10;;;;;;;-147.86;100.00;-17609.17;105857;1257;60385;-42
2024/01/03 05:04:48;;;;;;;25.10;13.10;;;;;;;-147.86;100.00;-17609.17;105919;1266;59662;-42
2024/01/03 05:07:16;;;;;;;21.10;10.90;;;;;;;-147.86;100.00;-17609.17;105899;1256;73010;-42
2024/01/03 05:09:44;;;;;;;21.00;12.30;;;;;;;-147.86;100.00;-17609.17;105927;1257;65147;-42
2024/01/03 05:12:11;;;;;;;18.50;11.80;;;;;;;-147.86;100.00;-17609.17;105917;1257;71374;-43
2024/01/03 05:14:39;;;;;;;20.50;11.10;;;;;;;-147.86;100.00;-17609.17;105917;1254;60502;-43
2024/01/03 05:17:07;;;;;;;21.40;12.10;;;;;;;-147.86;100.00;-17609.17;105920;1257;60203;-42
2024/01/03 05:19:35;;;;;;;26.20;12.30;;;;;;;-147.86;100.00;-17609.17;105944;1257;72997;-42
2024/01/03 05:22:03;;;;;;;22.70;11.80;;;;;;;-147.86;100.00;-17609.17;105908;1256;63910;-42
2024/01/03 05:24:31;;;;;;;22.40;12.00;;;;;;;-147.86;100.00;-17609.17;105957;1253;71683;-43
2024/01/03 05:26:59;;;;;;;26.30;13.00;;;;;;;-147.86;100.00;-17609.17;105859;1253;60297;-42
2024/01/03 05:29:27;;;;;;;23.40;13.40;;;;;;;-147.86;100.00;-17609.17;105900;1256;59602;-43
2024/01/03 05:31:54;;;;;;;25.70;12.70;;;;;;;-147.86;100.00;-17609.17;105916;1260;70808;-42
2024/01/03 05:34:22;;;;;;;22.60;11.80;;;;;;;-147.86;100.00;-17609.17;105932;1257;64487;-43
2024/01/03 05:36:50;;;;;;;23.10;11.60;;;;;;;-147.86;100.00;-17609.17;105871;1257;71421;-42
2024/01/03 05:39:18;;;;;;;22.20;12.80;;;;;;;-147.86;100.00;-17609.17;105910;1254;59666;-42
2024/01/03 05:41:45;;;;;;;28.10;15.70;;;;;;;-147.86;100.00;-17609.17;105927;1253;60834;-43
2024/01/03 05:54:41;;;;;;;20.50;12.90;;;;;;;-147.86;100.00;-17609.17;102807;1296;600153;-43
2024/01/03 05:57:09;;;;;;;22.60;12.90;;;;;;;-147.86;100.00;-17609.17;105071;1267;59318;-42
2024/01/03 05:59:39;;;;;;;20.30;12.70;;;;;;;-147.86;100.00;-17609.17;105091;1263;59375;-42
2024/01/03 06:02:07;;;;;;;29.40;13.40;;;;;;;-147.86;100.00;-17609.17;105062;1264;71041;-42
2024/01/03 06:54:35;;;;;;;22.20;13.30;;;;;;;-147.86;100.00;-17609.17;102938;1290;600978;-43
2024/01/03 06:57:03;;;;;;;26.10;12.90;;;;;;;-147.86;100.00;-17609.17;105052;1266;59171;-43
2024/01/03 06:59:35;;;;;;;27.00;14.10;;;;;;;-147.86;100.00;-17609.17;105130;1270;59806;-42
2024/01/03 07:02:04;;;;;;;22.20;13.00;;;;;;;-147.86;100.00;-17609.17;105214;1264;71002;-42
2024/01/03 07:04:31;;;;;;;24.50;14.40;;;;;;;-147.86;100.00;-17609.17;105190;1264;63636;-43
2024/01/03 07:07:01;;;;;;;21.90;12.50;;;;;;;-147.86;100.00;-17609.17;105143;1264;72075;-42
2024/01/03 07:09:28;;;;;;;26.20;13.90;;;;;;;-147.86;100.00;-17609.17;105120;1262;59989;-43
2024/01/03 07:11:56;;;;;;;23.40;13.60;;;;;;;-147.86;100.00;-17609.17;105257;1266;59237;-43
2024/01/03 07:14:24;;;;;;;21.90;13.00;;;;;;;-147.86;100.00;-17609.17;105225;1261;70981;-42
2024/01/03 07:16:52;;;;;;;20.60;11.30;;;;;;;-147.86;100.00;-17609.17;105281;1267;63884;-43
2024/01/03 07:19:19;;;;;;;22.90;13.10;;;;;;;-147.86;100.00;-17609.17;105234;1267;72623;-43
2024/01/03 07:21:47;;;;;;;22.70;12.60;;;;;;;-147.86;100.00;-17609.17;105220;1266;59755;-42
2024/01/03 07:24:16;;;;;;;22.30;12.20;;;;;;;-147.86;100.00;-17609.17;105226;1264;59768;-42
2024/01/03 07:26:43;;;;;;;23.20;12.80;;;;;;;-147.86;100.00;-17609.17;105255;1267;72100;-43
2024/01/03 07:29:12;;;;;;;25.90;14.90;;;;;;;-147.86;100.00;-17609.17;105137;1261;64004;-42
2024/01/03 07:31:39;;;;;;;23.00;13.20;;;;;;;-147.86;100.00;-17609.17;105161;1264;71804;-43
2024/01/03 07:34:07;;;;;;;20.00;12.10;;;;;;;-147.86;100.00;-17609.17;105175;1266;59698;-43
2024/01/03 07:36:35;;;;;;;23.80;12.70;;;;;;;-147.86;100.00;-17609.17;105218;1267;59676;-42
2024/01/03 07:39:03;;;;;;;22.30;13.40;;;;;;;-147.86;100.00;-17609.17;105231;1261;72968;-43
2024/01/03 07:41:31;;;;;;;19.20;11.80;;;;;;;-147.86;100.00;-17609.17;105173;1260;63012;-42
2024/01/03 07:44:00;;;;;;;24.10;12.30;;;;;;;-147.86;100.00;-17609.17;105243;1264;72094;-43
2024/01/03 07:54:12;;;;;;;18.90;11.10;;;;;;;-147.86;100.00;-17609.17;102646;1292;600656;-43
2024/01/03 07:56:40;;;;;;;17.60;11.10;;;;;;;-147.86;100.00;-17609.17;104859;1271;59866;-44
2024/01/03 07:59:08;;;;;;;19.60;11.60;;;;;;;-147.86;100.00;-17609.17;104822;1273;59262;-44
2024/01/03 08:01:35;;;;;;;22.60;12.70;;;;;;;-147.86;100.00;-17609.17;105175;1269;71082;-43
2024/01/03 08:04:04;;;;;;;17.00;11.10;;;;;;;-147.86;100.00;-17609.17;105191;1276;65144;-43
2024/01/03 08:06:33;;;;;;;21.80;12.90;;;;;;;-147.86;100.00;-17609.17;105200;1264;71389;-44
2024/01/03 08:09:01;;;;;;;18.20;11.80;;;;;;;-147.86;100.00;-17609.17;104880;1262;457911;-43
2024/01/03 08:11:28;;;;;;;21.70;13.30;;;;;;;-147.86;100.00;-17609.17;105212;1265;60042;-44
2024/01/03 08:13:57;;;;;;;19.10;11.40;;;;;;;-147.86;100.00;-17609.17;105274;1264;72392;-43
2024/01/03 08:16:24;;;;;;;18.40;11.30;;;;;;;-147.86;100.00;-17609.17;105374;1261;64011;-44
2024/01/03 08:18:52;;;;;;;24.20;12.50;;;;;;;-147.86;100.00;-17609.17;105214;1266;71451;-44
2024/01/03 08:21:21;;;;;;;22.80;12.40;;;;;;;-147.86;100.00;-17609.17;105498;1261;59682;-43
2024/01/03 08:23:48;;;;;;;18.70;12.50;;;;;;;-147.86;100.00;-17609.17;105589;1263;60644;-44
2024/01/03 08:26:16;;;;;;;24.80;12.80;;;;;;;-147.86;100.00;-17609.17;105548;1263;73073;-43
2024/01/03 08:28:45;;;;;;;23.00;11.80;;;;;;;-147.86;100.00;-17609.17;105541;1260;65806;-44
2024/01/03 08:31:15;;;;;;;21.80;12.00;;;;;;;-147.86;100.00;-17609.17;105527;1258;71381;-44
2024/01/03 08:33:43;;;;;;;22.40;12.90;;;;;;;-147.86;100.00;-17609.17;105547;1263;60458;-45
2024/01/03 08:36:12;;;;;;;20.10;11.40;;;;;;;-147.86;100.00;-17609.17;105616;1261;59616;-44
2024/01/03 08:38:41;;;;;;;18.60;10.50;;;;;;;-147.86;100.00;-17609.17;105542;1258;73197;-44
2024/01/03 08:41:16;;;;;;;22.70;13.10;;;;;;;-147.86;100.00;-17609.17;105637;1261;65252;-44
2024/01/03 08:43:44;;;;;;;;;;;;;;;-147.86;100.00;-17609.17;105623;1257;71172;-43
2024/01/03 08:46:12;;;;;;;23.30;11.80;;;;;;;-147.86;100.00;-17609.17;105567;1257;59606;-44
2024/01/03 08:48:41;;;;;;;21.80;11.90;;;;;;;-147.86;100.00;-17609.17;105554;1260;59661;-44
2024/01/03 08:51:13;;;;;;;18.60;11.00;;;;;;;-147.86;100.00;-17609.17;105528;1257;71771;-44
2024/01/03 08:53:42;;;;;;;24.70;12.20;;;;;;;-147.86;100.00;-17609.17;105379;1262;63222;-43
2024/01/03 08:56:17;;;;;;;24.50;12.30;;;;;;;-147.86;100.00;-17609.17;105396;1264;72559;-43
2024/01/03 08:58:46;;;;;;;17.10;10.60;;;;;;;-147.86;100.00;-17609.17;105378;1260;59736;-43
2024/01/03 09:01:22;;;;;;;19.40;11.50;;;;;;;-147.86;100.00;-17609.17;105366;1262;60374;-43
2024/01/03 09:03:50;;;;;;;19.90;11.10;;;;;;;-147.86;100.00;-17609.17;105408;1262;72984;-44
2024/01/03 09:06:22;;;;;;;21.40;12.30;;;;;;;-147.86;100.00;-17609.17;105448;1262;64266;-43
2024/01/03 09:08:50;;;;;;;18.90;11.00;;;;;;;-147.86;100.00;-17609.17;105364;1263;72608;-43
2024/01/03 09:11:23;;;;;;;22.40;11.80;;;;;;;-147.86;100.00;-17609.17;105363;1263;59554;-44
2024/01/03 09:13:52;;;;;;;18.60;12.00;;;;;;;-147.86;100.00;-17609.17;105375;1263;60652;-44
2024/01/03 09:16:20;;;;;;;23.00;12.30;;;;;;;-147.86;100.00;-17609.17;105392;1271;73091;-44
2024/01/03 09:18:48;;;;;;;23.60;13.20;;;;;;;-147.86;100.00;-17609.17;105383;1263;65177;-44
2024/01/03 09:21:16;;;;;;;23.50;12.60;;;;;;;-147.86;100.00;-17609.17;105455;1262;71370;-44
2024/01/03 09:23:44;;;;;;;19.50;12.30;;;;;;;-147.86;100.00;-17609.17;105419;1261;59749;-44
2024/01/03 09:26:12;;;;;;;20.00;12.30;;;;;;;-147.86;100.00;-17609.17;105373;1258;60172;-44
2024/01/03 09:28:41;;;;;;;17.10;11.20;;;;;;;-147.86;100.00;-17609.17;105466;1262;73016;-44
2024/01/03 09:31:10;;;;;;;15.70;10.70;;;;;;;-147.86;100.00;-17609.17;105297;1264;63955;-44
2024/01/03 09:33:38;;;;;;;18.60;12.10;;;;;;;-147.86;100.00;-17609.17;105465;1258;72678;-44
2024/01/03 09:36:16;;;;;;;20.30;12.00;;;;;;;-147.86;100.00;-17609.17;105438;1263;61556;-44
2024/01/03 09:38:44;;;;;;;23.70;11.40;;;;;;;-147.86;100.00;-17609.17;105461;1271;59692;-44
2024/01/03 09:41:14;;;;;;;16.50;10.70;;;;;;;-147.86;100.00;-17609.17;105360;1266;73023;-44
2024/01/03 09:43:42;;;;;;;19.40;11.90;;;;;;;-147.86;100.00;-17609.17;105464;1257;63795;-44
2024/01/03 09:46:11;;;;;;;21.40;12.50;;;;;;;-147.86;100.00;-17609.17;105381;1264;73188;-44
2024/01/03 09:48:42;;;;;;;19.20;11.50;;;;;;;-147.86;100.00;-17609.17;105434;1262;59685;-44
2024/01/03 09:51:10;;;;;;;17.50;10.90;;;;;;;-147.86;100.00;-17609.17;105376;1264;59631;-44
2024/01/03 09:53:38;;;;;;;18.90;11.70;;;;;;;-147.86;100.00;-17609.17;105448;1258;75394;-44
2024/01/03 09:56:06;;;;;;;21.80;11.80;;;;;;;-147.86;100.00;-17609.17;105248;1265;63946;-44
2024/01/03 09:58:34;;;;;;;21.00;12.10;;;;;;;-147.86;100.00;-17609.17;105196;1263;72692;-43
2024/01/03 10:01:02;;;;;;;20.10;12.20;;;;;;;-147.86;100.00;-17609.17;105168;1262;59681;-45
2024/01/03 10:03:30;;;;;;;20.90;12.60;;;;;;;-147.86;100.00;-17609.17;105200;1263;59639;-43
2024/01/03 10:06:13;;;;;;;23.50;13.70;;;;;;;-147.86;100.00;-17609.17;105325;1262;73072;-44
2024/01/03 10:09:14;;;;;;;22.10;13.40;;;;;;;-147.86;100.00;-17609.17;105526;1266;64071;-45
2024/01/03 10:11:42;;;;;;;21.30;13.50;;;;;;;-147.86;100.00;-17609.17;105308;1259;72506;-45
2024/01/03 10:14:16;;;;;;;26.40;14.00;;;;;;;-147.86;100.00;-17609.17;105440;1259;62063;-44
2024/01/03 10:16:47;;;;;;;23.40;13.20;;;;;;;-147.86;100.00;-17609.17;105440;1263;60116;-45
2024/01/03 10:19:17;;;;;;;20.90;12.60;;;;;;;-147.86;100.00;-17609.17;105393;1266;74156;-43
2024/01/03 10:21:50;;;;;;;20.40;12.40;;;;;;;-147.86;100.00;-17609.17;105350;1258;65229;-43
2024/01/03 10:24:19;;;;;;;21.10;12.10;;;;;;;-147.86;100.00;-17609.17;105374;1263;73751;-43
2024/01/03 10:26:48;;;;;;;22.70;13.20;;;;;;;-147.86;100.00;-17609.17;105373;1263;59715;-44
2024/01/03 10:29:20;;;;;;;20.10;12.50;;;;;;;-147.86;100.00;-17609.17;105487;1261;62300;-43
2024/01/03 10:31:49;;;;;;;20.00;12.20;;;;;;;-147.86;100.00;-17609.17;105352;1266;72977;-43
2024/01/03 10:34:21;;;;;;;19.30;11.80;;;;;;;-147.86;100.00;-17609.17;105403;1262;67553;-43
2024/01/03 10:36:50;;;;;;;20.60;11.80;;;;;;;-147.86;100.00;-17609.17;105464;1260;71454;-43
2024/01/03 10:39:19;;;;;;;22.30;12.40;;;;;;;-147.86;100.00;-17609.17;105275;1264;59720;-44
2024/01/03 10:41:48;;;;;;;21.00;12.10;;;;;;;-147.86;100.00;-17609.17;105457;1261;59590;-43
2024/01/03 10:44:17;;;;;;;20.10;12.10;;;;;;;-147.86;100.00;-17609.17;105391;1260;75353;-44
2024/01/03 10:46:45;;;;;;;24.90;13.70;;;;;;;-147.86;100.00;-17609.17;105373;1264;65325;-44
2024/01/03 10:49:15;;;;;;;16.40;10.30;;;;;;;-147.86;100.00;-17609.17;105483;1263;72413;-43
2024/01/03 10:51:45;;;;;;;19.80;10.50;;;;;;;-147.86;100.00;-17609.17;105492;1263;59720;-44
2024/01/03 10:54:18;;;;;;;20.70;11.00;;;;;;;-147.86;100.00;-17609.17;105404;1264;61271;-43
2024/01/03 10:56:47;;;;;;;20.90;12.50;;;;;;;-147.86;100.00;-17609.17;105490;1258;73011;-43
2024/01/03 10:59:15;;;;;;;17.50;10.40;;;;;;;-147.86;100.00;-17609.17;105492;1262;64511;-44
2024/01/03 11:01:57;;;;;;;17.60;10.80;;;;;;;-147.86;100.00;-17609.17;105437;1260;71472;-43
2024/01/03 11:04:40;;;;;;;21.50;10.90;;;;;;;-147.86;100.00;-17609.17;105457;1263;59975;-44
2024/01/03 11:07:28;;;;;;;22.20;11.10;;;;;;;-147.86;100.00;-17609.17;105475;1258;59583;-44
2024/01/03 11:09:56;;;;;;;19.60;10.90;;;;;;;-147.86;100.00;-17609.17;105480;1257;71866;-43
2024/01/03 11:12:29;;;;;;;19.60;11.40;;;;;;;-147.86;100.00;-17609.17;105444;1263;63930;-43
2024/01/03 11:15:23;;;;;;;20.70;11.60;;;;;;;-147.86;100.00;-17609.17;105342;1260;71411;-43
2024/01/03 11:18:08;;;;;;;26.50;12.20;;;;;;;-147.86;100.00;-17609.17;105466;1264;59647;-43
2024/01/03 11:20:37;;;;;;;19.50;12.10;;;;;;;-147.86;100.00;-17609.17;105334;1263;61066;-44
2024/01/03 11:23:05;;;;;;;16.60;11.20;;;;;;;-147.86;100.00;-17609.17;105367;1257;71771;-43
2024/01/03 11:25:47;;;;;;;18.60;11.10;;;;;;;-147.86;100.00;-17609.17;105466;1263;65209;-44
2024/01/03 11:29:48;;;;;;;;;;;;;;;-147.86;100.00;-17609.17;102727;1293;600610;-44
2024/01/03 11:32:33;;;;;;;22.20;11.00;;;;;;;-147.86;100.00;-17609.17;105066;1267;59286;-44
2024/01/03 11:35:08;;;;;;;20.90;12.70;;;;;;;-147.86;100.00;-17609.17;105107;1263;59846;-44
2024/01/03 11:37:38;;;;;;;36.70;13.70;;;;;;;-147.86;100.00;-17609.17;105106;1269;74407;-44
2024/01/03 11:40:08;;;;;;;20.30;12.90;;;;;;;-147.86;100.00;-17609.17;105100;1269;63040;-44
2024/01/03 11:42:38;;;;;;;19.80;12.50;;;;;;;-147.86;100.00;-17609.17;105438;1264;220999;-44
2024/01/03 11:45:14;;;;;;;21.90;12.50;;;;;;;-147.86;100.00;-17609.17;105629;1255;61208;-44
2024/01/03 11:47:44;;;;;;;22.90;12.20;;;;;;;-147.86;100.00;-17609.17;105681;1257;60861;-44
2024/01/03 11:50:14;;;;;;;26.50;12.50;;;;;;;-147.86;100.00;-17609.17;105532;1258;70961;-44
2024/01/03 11:52:47;;;;;;;19.00;11.80;;;;;;;-147.86;100.00;-17609.17;105585;1261;65172;-44
2024/01/03 11:55:17;;;;;;;20.20;11.90;;;;;;;-147.86;100.00;-17609.17;105615;1260;72565;-44
2024/01/03 11:57:48;;;;;;;21.60;12.20;;;;;;;-147.86;100.00;-17609.17;105604;1257;61216;-44
2024/01/03 12:00:20;;;;;;;19.10;11.20;;;;;;;-147.86;100.00;-17609.17;105597;1261;60839;-44
2024/01/03 12:02:49;;;;;;;20.80;11.20;;;;;;;-147.86;100.00;-17609.17;105591;1262;73434;-44
2024/01/03 12:05:17;;;;;;;17.60;11.10;;;;;;;-147.86;100.00;-17609.17;105632;1264;66448;-45
2024/01/03 12:07:45;;;;;;;24.30;12.30;;;;;;;-147.86;100.00;-17609.17;105572;1257;72877;-44
2024/01/03 12:10:18;;;;;;;24.80;11.60;;;;;;;-147.86;100.00;-17609.17;105597;1262;59715;-44
2024/01/03 12:12:46;;;;;;;20.90;12.10;;;;;;;-147.86;100.00;-17609.17;105577;1262;59607;-44
2024/01/03 12:15:26;;;;;;;17.00;11.20;;;;;;;-147.86;100.00;-17609.17;105631;1263;72899;-44
2024/01/03 12:18:14;;;;;;;23.10;11.70;;;;;;;-147.86;100.00;-17609.17;105557;1262;65637;-44
2024/01/03 12:20:42;;;;;;;17.40;11.80;;;;;;;-147.86;100.00;-17609.17;105568;1261;74925;-44
2024/01/03 12:23:11;;;;;;;24.00;12.20;;;;;;;-147.86;100.00;-17609.17;105522;1263;60728;-44
2024/01/03 12:25:40;;;;;;;21.30;12.10;;;;;;;-147.86;100.00;-17609.17;105596;1261;59539;-44
2024/01/03 12:28:08;;;;;;;23.30;12.50;;;;;;;-147.86;100.00;-17609.17;105656;1261;73091;-45
2024/01/03 12:30:35;;;;;;;21.00;12.40;;;;;;;-147.86;100.00;-17609.17;105637;1262;65122;-44
2024/01/03 12:33:11;;;;;;;31.00;12.60;;;;;;;-147.86;100.00;-17609.17;105548;1256;72987;-44
2024/01/03 12:35:41;;;;;;;27.60;12.90;;;;;;;-147.86;100.00;-17609.17;105611;1257;59622;-44
2024/01/03 12:38:09;;;;;;;21.50;11.60;;;;;;;-147.86;100.00;-17609.17;105539;1260;60958;-44
2024/01/03 12:40:37;;;;;;;22.50;11.00;;;;;;;-147.86;100.00;-17609.17;105575;1262;73084;-44
2024/01/03 12:43:06;;;;;;;19.50;11.30;;;;;;;-147.86;100.00;-17609.17;105608;1270;65266;-45
2024/01/03 12:45:34;;;;;;;17.70;11.40;;;;;;;-147.86;100.00;-17609.17;105593;1261;72501;-44
2024/01/03 12:48:02;;;;;;;20.00;11.90;;;;;;;-147.86;100.00;-17609.17;105533;1261;59709;-44
2024/01/03 12:50:30;;;;;;;16.40;10.50;;;;;;;-147.86;100.00;-17609.17;105569;1258;62017;-44
2024/01/03 12:52:58;;;;;;;19.00;11.10;;;;;;;-147.86;100.00;-17609.17;105511;1263;73017;-43
2024/01/03 13:53:11;;;;;;;;;;;;;;;-147.86;100.00;-17609.17;102815;1296;600321;-44